createdAt,value
2022-09-23T00:01:04.534Z,10.73
2022-09-23T00:03:32.191Z,10.78
2022-09-23T00:06:04.510Z,10.85
2022-09-23T00:08:32.308Z,10.88
2022-09-23T00:11:16.208Z,10.88
2022-09-23T00:13:44.904Z,10.91
2022-09-23T00:16:14.500Z,10.99
2022-09-23T00:18:42.435Z,11.03
2022-09-23T00:21:11.102Z,11.08
2022-09-23T00:23:39.062Z,11.16
2022-09-23T00:26:06.987Z,11.17
2022-09-23T00:28:34.731Z,11.15
2022-09-23T00:31:02.879Z,11.15
2022-09-23T00:33:30.213Z,11.14
2022-09-23T00:36:06.017Z,11.16
2022-09-23T00:38:34.416Z,11.24
2022-09-23T00:41:01.589Z,11.31
2022-09-23T00:43:41.594Z,11.31
2022-09-23T00:46:18.053Z,11.30
2022-09-23T00:48:46.435Z,11.26
2022-09-23T00:51:18.036Z,11.23
2022-09-23T00:53:47.748Z,11.24
2022-09-23T00:56:15.923Z,11.17
2022-09-23T00:58:44.752Z,11.08
2022-09-23T01:01:14.169Z,10.99
2022-09-23T01:03:43.606Z,10.91
2022-09-23T01:06:11.345Z,10.90
2022-09-23T01:08:39.118Z,10.90
2022-09-23T01:11:06.350Z,10.92
2022-09-23T01:13:38.512Z,10.93
2022-09-23T01:16:19.190Z,10.89
2022-09-23T01:18:46.839Z,10.86
2022-09-23T01:21:17.077Z,10.90
2022-09-23T01:23:53.408Z,10.89
2022-09-23T01:26:33.970Z,10.84
2022-09-23T01:29:04.029Z,10.75
2022-09-23T01:31:31.202Z,10.72
2022-09-23T01:34:11.331Z,10.68
2022-09-23T01:36:39.543Z,10.63
2022-09-23T01:39:24.868Z,10.64
2022-09-23T01:42:07.898Z,10.63
2022-09-23T01:44:43.927Z,10.69
2022-09-23T01:47:14.884Z,10.66
2022-09-23T01:49:51.321Z,10.66
2022-09-23T01:52:35.650Z,10.65
2022-09-23T01:55:08.922Z,10.64
2022-09-23T01:57:49.069Z,10.65
2022-09-23T02:00:17.499Z,10.65
2022-09-23T02:02:59.589Z,10.68
2022-09-23T02:05:33.710Z,10.68
2022-09-23T02:08:09.073Z,10.76
2022-09-23T02:10:47.770Z,10.77
2022-09-23T02:13:18.552Z,10.72
2022-09-23T02:15:49.912Z,10.72
2022-09-23T02:18:20.769Z,10.74
2022-09-23T02:20:51.224Z,10.78
2022-09-23T02:23:23.725Z,10.81
2022-09-23T02:26:03.631Z,10.79
2022-09-23T02:28:49.514Z,10.78
2022-09-23T02:31:28.141Z,10.75
2022-09-23T02:34:02.718Z,10.82
2022-09-23T02:36:31.739Z,10.85
2022-09-23T02:39:04.049Z,10.86
2022-09-23T02:41:37.560Z,10.83
2022-09-23T02:44:10.379Z,10.77
2022-09-23T02:46:38.391Z,10.74
2022-09-23T02:49:17.742Z,10.71
2022-09-23T02:51:45.749Z,10.67
2022-09-23T02:54:15.144Z,10.66
2022-09-23T02:56:42.738Z,10.67
2022-09-23T02:59:10.888Z,10.67
2022-09-23T03:01:56.766Z,10.67
2022-09-23T03:04:31.988Z,10.69
2022-09-23T03:07:19.266Z,10.65
2022-09-23T03:09:53.031Z,10.67
2022-09-23T03:12:27.238Z,10.70
2022-09-23T03:15:10.257Z,10.68
2022-09-23T03:17:43.707Z,10.67
2022-09-23T03:20:15.749Z,10.70
2022-09-23T03:22:49.002Z,10.69
2022-09-23T03:25:19.465Z,10.72
2022-09-23T03:27:46.682Z,10.80
2022-09-23T03:30:14.578Z,10.90
2022-09-23T03:32:44.612Z,11.02
2022-09-23T03:35:12.538Z,11.07
2022-09-23T03:37:41.997Z,11.10
2022-09-23T03:40:09.503Z,11.12
2022-09-23T03:42:38.628Z,11.07
2022-09-23T03:45:09.492Z,11.08
2022-09-23T03:47:39.631Z,11.09
2022-09-23T03:50:07.184Z,11.07
2022-09-23T03:52:34.492Z,11.04
2022-09-23T03:55:01.779Z,11.01
2022-09-23T03:57:30.347Z,10.97
2022-09-23T03:59:57.516Z,10.92
2022-09-23T04:02:25.417Z,10.88
2022-09-23T04:04:52.741Z,10.83
2022-09-23T04:07:20.753Z,10.82
2022-09-23T04:09:48.247Z,10.84
2022-09-23T04:12:16.265Z,10.88
2022-09-23T04:14:43.743Z,10.86
2022-09-23T04:17:11.836Z,10.82
2022-09-23T04:19:39.369Z,10.80
2022-09-23T04:22:07.020Z,10.81
2022-09-23T04:24:34.580Z,10.77
2022-09-23T04:27:02.141Z,10.78
2022-09-23T04:29:29.631Z,10.80
2022-09-23T04:31:58.039Z,10.90
2022-09-23T04:34:25.219Z,10.96
2022-09-23T04:36:52.452Z,11.05
2022-09-23T04:39:19.914Z,11.09
2022-09-23T04:41:47.577Z,11.08
2022-09-23T04:44:15.314Z,11.08
2022-09-23T04:46:43.836Z,11.04
2022-09-23T04:49:11.362Z,11.09
2022-09-23T04:51:40.680Z,11.15
2022-09-23T04:54:08.210Z,10.81
2022-09-23T04:56:35.432Z,11.36
2022-09-23T04:59:02.900Z,11.49
2022-09-23T05:01:31.851Z,11.63
2022-09-23T05:04:03.141Z,11.71
2022-09-23T05:06:31.610Z,11.91
2022-09-23T05:08:59.570Z,11.99
2022-09-23T05:11:27.373Z,12.07
2022-09-23T05:13:54.716Z,12.20
2022-09-23T05:16:25.783Z,12.28
2022-09-23T05:18:53.422Z,12.22
2022-09-23T05:21:21.944Z,12.25
2022-09-23T05:23:50.308Z,12.24
2022-09-23T05:26:17.519Z,12.27
2022-09-23T05:28:44.756Z,12.31
2022-09-23T05:31:20.010Z,12.46
2022-09-23T05:33:49.307Z,12.54
2022-09-23T05:36:20.231Z,12.66
2022-09-23T05:38:49.368Z,12.83
2022-09-23T05:41:16.689Z,12.93
2022-09-23T05:43:44.277Z,12.86
2022-09-23T05:46:15.852Z,13.12
2022-09-23T05:48:45.760Z,13.93
2022-09-23T05:51:20.331Z,15.54
2022-09-23T05:53:48.805Z,16.47
2022-09-23T05:56:17.868Z,16.56
2022-09-23T05:58:45.088Z,16.56
2022-09-23T06:01:14.417Z,16.38
2022-09-23T06:03:41.660Z,16.17
2022-09-23T06:06:12.951Z,15.93
2022-09-23T06:08:40.560Z,15.44
2022-09-23T06:11:08.509Z,14.99
2022-09-23T06:13:39.173Z,14.55
2022-09-23T06:16:08.295Z,14.16
2022-09-23T06:18:35.861Z,13.88
2022-09-23T06:21:03.531Z,13.81
2022-09-23T06:23:31.343Z,13.73
2022-09-23T06:26:02.329Z,13.64
2022-09-23T06:28:31.405Z,13.72
2022-09-23T06:31:03.667Z,13.90
2022-09-23T06:33:36.488Z,13.99
2022-09-23T06:36:05.839Z,14.07
2022-09-23T06:38:36.726Z,14.06
2022-09-23T06:41:04.111Z,14.23
2022-09-23T06:43:31.644Z,14.48
2022-09-23T06:45:59.764Z,14.56
2022-09-23T06:48:28.105Z,14.57
2022-09-23T06:50:58.871Z,14.40
2022-09-23T06:53:26.000Z,14.33
2022-09-23T06:56:04.643Z,14.31
2022-09-23T06:58:32.752Z,14.32
2022-09-23T07:01:26.554Z,14.39
2022-09-23T07:03:54.408Z,14.25
2022-09-23T07:06:21.747Z,13.97
2022-09-23T07:08:49.204Z,13.79
2022-09-23T07:11:19.463Z,13.56
2022-09-23T07:13:46.774Z,13.32
2022-09-23T07:16:14.628Z,13.17
2022-09-23T07:18:42.911Z,13.05
2022-09-23T07:21:15.471Z,12.98
2022-09-23T07:23:43.868Z,12.94
2022-09-23T07:26:11.101Z,13.02
2022-09-23T07:28:38.530Z,13.15
2022-09-23T07:31:07.703Z,13.24
2022-09-23T07:33:36.567Z,13.30
2022-09-23T07:36:05.341Z,13.16
2022-09-23T07:38:32.878Z,13.18
2022-09-23T07:41:07.764Z,13.35
2022-09-23T07:43:35.652Z,13.62
2022-09-23T07:46:05.425Z,13.86
2022-09-23T07:48:34.507Z,13.97
2022-09-23T07:51:12.952Z,13.91
2022-09-23T07:53:40.342Z,13.88
2022-09-23T07:56:07.602Z,13.97
2022-09-23T07:58:35.391Z,14.12
2022-09-23T08:01:06.688Z,14.08
2022-09-23T08:03:34.009Z,13.84
2022-09-23T08:06:05.642Z,13.68
2022-09-23T08:08:33.142Z,13.37
2022-09-23T08:11:01.635Z,13.33
2022-09-23T08:13:28.891Z,13.33
2022-09-23T08:15:56.215Z,13.36
2022-09-23T08:18:23.566Z,13.48
2022-09-23T08:20:51.209Z,13.68
2022-09-23T08:23:19.710Z,13.93
2022-09-23T08:25:49.199Z,14.02
2022-09-23T08:28:18.809Z,14.10
2022-09-23T08:30:48.695Z,14.31
2022-09-23T08:33:19.630Z,14.65
2022-09-23T08:35:50.058Z,14.63
2022-09-23T08:38:17.543Z,14.72
2022-09-23T08:40:47.551Z,14.76
2022-09-23T08:43:19.636Z,14.69
2022-09-23T08:45:46.919Z,14.57
2022-09-23T08:48:16.147Z,14.42
2022-09-23T08:50:45.604Z,14.39
2022-09-23T08:53:22.023Z,14.43
2022-09-23T08:55:52.015Z,14.46
2022-09-23T08:58:26.500Z,14.36
2022-09-23T09:01:09.799Z,14.20
2022-09-23T09:03:55.746Z,14.08
2022-09-23T09:06:45.589Z,14.06
2022-09-23T09:09:24.699Z,14.08
2022-09-23T09:11:55.179Z,14.18
2022-09-23T09:14:30.454Z,14.32
2022-09-23T09:17:01.526Z,14.43
2022-09-23T09:19:30.644Z,14.63
2022-09-23T09:21:58.264Z,14.78
2022-09-23T09:24:34.564Z,14.68
2022-09-23T09:27:09.375Z,14.68
2022-09-23T09:29:39.340Z,14.65
2022-09-23T09:32:15.762Z,14.73
2022-09-23T09:34:49.660Z,15.01
2022-09-23T09:37:19.852Z,15.38
2022-09-23T09:39:47.296Z,15.68
2022-09-23T09:42:35.639Z,15.84
2022-09-23T09:45:04.678Z,15.68
2022-09-23T09:47:50.114Z,15.47
2022-09-23T09:50:22.304Z,15.35
2022-09-23T09:52:49.499Z,15.30
2022-09-23T09:55:23.277Z,15.23
2022-09-23T09:57:50.409Z,15.08
2022-09-23T10:00:27.069Z,14.99
2022-09-23T10:02:55.274Z,15.08
2022-09-23T10:05:27.902Z,14.91
2022-09-23T10:07:55.455Z,14.76
2022-09-23T10:10:32.745Z,14.63
2022-09-23T10:13:14.870Z,14.47
2022-09-23T10:15:45.046Z,14.43
2022-09-23T10:18:20.810Z,14.42
2022-09-23T10:20:48.366Z,14.46
2022-09-23T10:23:18.121Z,14.49
2022-09-23T10:25:55.872Z,14.72
2022-09-23T10:28:38.441Z,15.00
2022-09-23T10:31:07.195Z,15.25
2022-09-23T10:33:34.494Z,15.40
2022-09-23T10:36:02.042Z,15.25
2022-09-23T10:38:29.384Z,15.11
2022-09-23T10:41:15.312Z,14.95
2022-09-23T10:44:10.292Z,15.05
2022-09-23T10:46:50.713Z,15.24
2022-09-23T10:49:21.200Z,15.38
2022-09-23T10:52:06.934Z,15.41
2022-09-23T10:54:34.216Z,15.39
2022-09-23T10:57:27.614Z,15.33
2022-09-23T11:00:24.481Z,15.34
2022-09-23T11:03:03.590Z,15.48
2022-09-23T11:05:38.721Z,15.62
2022-09-23T11:08:24.709Z,15.50
2022-09-23T11:11:11.772Z,15.32
2022-09-23T11:13:45.734Z,15.42
2022-09-23T11:16:18.765Z,15.52
2022-09-23T11:18:51.642Z,15.44
2022-09-23T11:21:21.914Z,15.32
2022-09-23T11:24:07.695Z,15.17
2022-09-23T11:26:57.418Z,15.24
2022-09-23T11:29:37.598Z,15.40
2022-09-23T11:32:04.843Z,15.39
2022-09-23T11:34:52.721Z,15.49
2022-09-23T11:37:25.996Z,15.38
2022-09-23T11:39:56.520Z,15.42
2022-09-23T11:42:27.607Z,15.39
2022-09-23T11:44:59.682Z,15.36
2022-09-23T11:47:30.433Z,15.48
2022-09-23T11:50:03.250Z,15.62
2022-09-23T11:52:42.767Z,15.52
2022-09-23T11:55:23.254Z,15.23
2022-09-23T11:57:56.484Z,15.01
2022-09-23T12:00:36.359Z,14.78
2022-09-23T12:03:35.170Z,14.62
2022-09-23T12:06:14.672Z,14.66
2022-09-23T12:08:41.847Z,14.78
2022-09-23T12:11:27.816Z,14.68
2022-09-23T12:14:16.512Z,14.52
2022-09-23T12:16:52.712Z,14.17
2022-09-23T12:19:39.105Z,14.55
2022-09-23T12:22:09.250Z,14.52
2022-09-23T12:24:39.648Z,14.50
2022-09-23T12:27:11.508Z,14.43
2022-09-23T12:29:40.700Z,14.43
2022-09-23T12:32:10.248Z,14.36
2022-09-23T12:34:49.230Z,14.50
2022-09-23T12:37:28.033Z,14.67
2022-09-23T12:39:59.591Z,14.76
2022-09-23T12:42:30.879Z,14.79
2022-09-23T12:45:17.229Z,14.97
2022-09-23T12:47:44.417Z,15.11
2022-09-23T12:50:51.143Z,15.05
2022-09-23T12:53:30.484Z,15.00
2022-09-23T12:55:59.003Z,14.88
2022-09-23T12:58:58.341Z,14.89
2022-09-23T13:01:27.077Z,14.84
2022-09-23T13:04:14.326Z,14.73
2022-09-23T13:06:48.287Z,14.63
2022-09-23T13:09:25.107Z,14.60
2022-09-23T13:11:53.534Z,14.52
2022-09-23T13:14:27.402Z,14.54
2022-09-23T13:16:57.483Z,14.60
2022-09-23T13:19:27.955Z,14.51
2022-09-23T13:21:55.216Z,14.46
2022-09-23T13:24:28.626Z,14.50
2022-09-23T13:27:14.116Z,14.43
2022-09-23T13:29:44.771Z,14.34
2022-09-23T13:32:19.378Z,14.22
2022-09-23T13:34:53.382Z,14.04
2022-09-23T13:37:23.002Z,13.86
2022-09-23T13:39:50.523Z,13.68
2022-09-23T13:42:27.380Z,13.62
2022-09-23T13:44:57.751Z,13.48
2022-09-23T13:47:28.291Z,13.37
2022-09-23T13:49:55.774Z,13.27
2022-09-23T13:52:25.553Z,13.18
2022-09-23T13:54:52.998Z,13.09
2022-09-23T13:57:37.104Z,13.05
2022-09-23T14:00:18.198Z,13.05
2022-09-23T14:02:47.084Z,13.06
2022-09-23T14:05:22.224Z,13.08
2022-09-23T14:07:50.943Z,13.11
2022-09-23T14:10:20.848Z,13.13
2022-09-23T14:12:49.921Z,13.23
2022-09-23T14:15:18.986Z,13.27
2022-09-23T14:17:51.421Z,13.23
2022-09-23T14:20:20.919Z,13.21
2022-09-23T14:22:48.210Z,13.21
2022-09-23T14:25:16.921Z,13.16
2022-09-23T14:27:45.186Z,13.19
2022-09-23T14:30:16.397Z,13.14
2022-09-23T14:32:44.635Z,13.04
2022-09-23T14:35:25.920Z,12.97
2022-09-23T14:38:14.086Z,12.86
2022-09-23T14:40:51.001Z,12.75
2022-09-23T14:43:18.463Z,12.68
2022-09-23T14:45:48.012Z,12.66
2022-09-23T14:48:17.819Z,12.64
2022-09-23T14:50:50.762Z,12.61
2022-09-23T14:53:22.577Z,12.56
2022-09-23T14:55:54.588Z,12.49
2022-09-23T14:58:24.261Z,12.49
2022-09-23T15:01:01.782Z,12.50
2022-09-23T15:03:29.364Z,12.47
2022-09-23T15:05:58.296Z,12.42
2022-09-23T15:08:27.586Z,12.38
2022-09-23T15:10:55.193Z,12.37
2022-09-23T15:13:30.233Z,12.34
2022-09-23T15:15:58.191Z,12.32
2022-09-23T15:18:26.865Z,12.27
2022-09-23T15:20:55.902Z,12.22
2022-09-23T15:23:35.311Z,12.23
2022-09-23T15:26:06.147Z,12.29
2022-09-23T15:28:33.459Z,12.34
2022-09-23T15:31:01.273Z,12.34
2022-09-23T15:33:30.270Z,12.33
2022-09-23T15:35:58.423Z,12.25
2022-09-23T15:38:27.413Z,12.23
2022-09-23T15:40:54.836Z,12.20
2022-09-23T15:43:23.555Z,12.13
2022-09-23T15:45:56.318Z,12.09
2022-09-23T15:48:28.445Z,12.12
2022-09-23T15:50:55.721Z,12.08
2022-09-23T15:53:27.548Z,12.02
2022-09-23T15:55:54.837Z,11.92
2022-09-23T15:58:22.883Z,11.92
2022-09-23T16:00:56.634Z,11.90
2022-09-23T16:03:33.983Z,11.87
2022-09-23T16:06:03.396Z,11.85
2022-09-23T16:08:33.212Z,11.83
2022-09-23T16:11:00.772Z,11.82
2022-09-23T16:13:28.207Z,11.77
2022-09-23T16:15:56.533Z,11.72
2022-09-23T16:18:23.811Z,11.74
2022-09-23T16:20:51.610Z,11.81
2022-09-23T16:23:42.981Z,11.77
2022-09-23T16:26:10.299Z,11.78
2022-09-23T16:28:38.014Z,11.76
2022-09-23T16:31:05.691Z,11.75
2022-09-23T16:33:33.201Z,11.75
2022-09-23T16:36:01.239Z,11.83
2022-09-23T16:38:32.894Z,11.88
2022-09-23T16:41:00.928Z,11.96
2022-09-23T16:43:35.312Z,11.94
2022-09-23T16:46:02.629Z,11.92
2022-09-23T16:48:29.854Z,11.86
2022-09-23T16:50:57.084Z,11.76
2022-09-23T16:53:25.703Z,11.76
2022-09-23T16:55:54.258Z,11.74
2022-09-23T16:58:21.761Z,11.73
2022-09-23T17:01:07.275Z,11.78
2022-09-23T17:03:41.499Z,11.87
2022-09-23T17:06:15.058Z,11.87
2022-09-23T17:08:43.138Z,11.82
2022-09-23T17:11:14.715Z,11.78
2022-09-23T17:13:42.542Z,11.78
2022-09-23T17:16:11.898Z,11.80
2022-09-23T17:18:39.584Z,11.77
2022-09-23T17:21:07.722Z,11.80
2022-09-23T17:23:35.911Z,11.82
2022-09-23T17:26:05.575Z,11.83
2022-09-23T17:31:18.496Z,11.81
2022-09-23T17:33:45.993Z,11.71
2022-09-23T17:36:14.097Z,11.69
2022-09-23T17:38:45.298Z,11.68
2022-09-23T17:41:14.209Z,11.60
2022-09-23T17:46:26.921Z,11.52
2022-09-23T17:51:57.797Z,11.58
2022-09-23T17:54:25.016Z,11.68
2022-09-23T17:56:52.227Z,11.67
2022-09-23T17:59:19.505Z,11.68
2022-09-23T18:01:46.622Z,11.70
2022-09-23T18:04:14.272Z,11.62
2022-09-23T18:06:41.694Z,11.52
2022-09-23T18:09:09.596Z,11.56
2022-09-23T18:11:41.986Z,11.54
2022-09-23T18:14:14.666Z,11.41
2022-09-23T18:16:42.956Z,11.43
2022-09-23T18:19:11.730Z,11.43
2022-09-23T18:21:41.304Z,11.50
2022-09-23T18:27:00.024Z,11.52
2022-09-23T18:29:27.728Z,11.50
2022-09-23T18:34:39.834Z,11.54
2022-09-23T18:37:15.250Z,11.46
2022-09-23T18:39:43.557Z,11.47
2022-09-23T18:42:11.174Z,11.55
2022-09-23T18:44:38.375Z,11.54
2022-09-23T18:47:05.905Z,11.60
2022-09-23T18:49:51.691Z,11.57
2022-09-23T18:52:20.364Z,11.49
2022-09-23T18:54:49.103Z,11.46
2022-09-23T18:57:18.929Z,11.38
2022-09-23T18:59:47.665Z,11.39
2022-09-23T19:02:15.647Z,11.44
2022-09-23T19:04:42.830Z,11.45
2022-09-23T19:07:10.293Z,11.43
2022-09-23T19:09:37.587Z,11.45
2022-09-23T19:12:05.095Z,11.40
2022-09-23T19:14:32.717Z,11.41
2022-09-23T19:17:00.068Z,11.42
2022-09-23T19:19:29.041Z,11.42
2022-09-23T19:21:56.696Z,11.39
2022-09-23T19:24:23.952Z,11.39
2022-09-23T19:26:51.401Z,11.37
2022-09-23T19:29:22.249Z,11.32
2022-09-23T19:31:49.638Z,11.28
2022-09-23T19:34:23.949Z,11.34
2022-09-23T19:36:52.942Z,11.41
2022-09-23T19:39:21.243Z,11.42
2022-09-23T19:41:49.185Z,11.45
2022-09-23T19:44:16.999Z,11.46
2022-09-23T19:46:45.807Z,11.42
2022-09-23T19:49:14.080Z,11.38
2022-09-23T19:51:41.626Z,11.25
2022-09-23T19:54:09.388Z,11.26
2022-09-23T19:56:36.917Z,11.29
2022-09-23T19:59:07.033Z,11.39
2022-09-23T20:01:34.589Z,11.46
2022-09-23T20:04:02.263Z,11.48
2022-09-23T20:06:34.128Z,11.54
2022-09-23T20:09:02.088Z,11.62
2022-09-23T20:11:29.561Z,11.66
2022-09-23T20:14:01.911Z,11.68
2022-09-23T20:16:32.635Z,11.70
2022-09-23T20:19:01.005Z,11.75
2022-09-23T20:21:29.503Z,11.79
2022-09-23T20:23:57.485Z,11.80
2022-09-23T20:26:43.221Z,11.80
2022-09-23T20:29:11.508Z,11.81
2022-09-23T20:31:40.705Z,11.83
2022-09-23T20:34:10.246Z,11.87
2022-09-23T20:36:38.205Z,11.87
2022-09-23T20:39:06.206Z,11.88
2022-09-23T20:41:37.484Z,11.91
2022-09-23T20:44:06.587Z,11.91
2022-09-23T20:46:34.609Z,11.89
2022-09-23T20:49:02.283Z,11.92
2022-09-23T20:51:29.904Z,11.93
2022-09-23T20:53:57.269Z,11.96
2022-09-23T20:56:25.479Z,11.89
2022-09-23T20:58:54.359Z,11.86
2022-09-23T21:01:22.168Z,11.90
2022-09-23T21:03:50.338Z,11.92
2022-09-23T21:06:19.169Z,11.87
2022-09-23T21:08:46.866Z,11.90
2022-09-23T21:11:16.087Z,11.90
2022-09-23T21:13:47.385Z,11.87
2022-09-23T21:16:17.940Z,11.85
2022-09-23T21:18:45.757Z,11.83
2022-09-23T21:21:14.400Z,11.74
2022-09-23T21:23:42.919Z,11.69
2022-09-23T21:26:11.542Z,11.70
2022-09-23T21:28:40.383Z,11.67
2022-09-23T21:31:09.198Z,11.60
2022-09-23T21:33:37.634Z,11.59
2022-09-23T21:36:08.264Z,11.62
2022-09-23T21:38:36.345Z,11.58
2022-09-23T21:41:05.152Z,11.19
2022-09-23T21:43:34.246Z,11.53
2022-09-23T21:46:02.697Z,11.56
2022-09-23T21:48:29.836Z,11.59
2022-09-23T21:50:58.215Z,11.60
2022-09-23T21:53:26.176Z,11.57
2022-09-23T21:55:53.495Z,11.50
2022-09-23T21:58:21.983Z,11.49
2022-09-23T22:00:49.361Z,11.47
2022-09-23T22:03:16.688Z,11.49
2022-09-23T22:05:44.339Z,11.46
2022-09-23T22:08:11.635Z,11.35
2022-09-23T22:10:39.486Z,11.25
2022-09-23T22:13:12.589Z,11.21
2022-09-23T22:15:40.163Z,11.18
2022-09-23T22:18:08.172Z,11.14
2022-09-23T22:20:35.824Z,11.17
2022-09-23T22:23:03.127Z,11.22
2022-09-23T22:25:30.366Z,11.23
2022-09-23T22:28:16.387Z,11.21
2022-09-23T22:31:02.561Z,11.20
2022-09-23T22:33:30.080Z,11.20
2022-09-23T22:36:03.938Z,11.18
2022-09-23T22:38:31.488Z,11.16
2022-09-23T22:41:00.081Z,11.14
2022-09-23T22:43:27.579Z,11.13
2022-09-23T22:45:55.131Z,11.13
2022-09-23T22:48:22.374Z,11.10
2022-09-23T22:50:49.532Z,11.08
2022-09-23T22:53:17.128Z,11.08
2022-09-23T22:55:44.629Z,11.11
2022-09-23T22:58:31.113Z,11.12
2022-09-23T23:00:59.455Z,11.17
2022-09-23T23:03:27.191Z,11.19
2022-09-23T23:05:57.735Z,11.21
2022-09-23T23:08:25.305Z,11.21
2022-09-23T23:10:55.233Z,11.14
2022-09-23T23:13:22.551Z,11.11
2022-09-23T23:15:50.009Z,11.08
2022-09-23T23:18:17.282Z,11.09
2022-09-23T23:20:44.748Z,11.10
2022-09-23T23:23:13.017Z,11.09
2022-09-23T23:25:40.503Z,11.12
2022-09-23T23:28:07.639Z,11.13
2022-09-23T23:30:35.287Z,11.12
2022-09-23T23:33:02.451Z,11.13
2022-09-23T23:35:29.795Z,11.12
2022-09-23T23:37:57.101Z,11.09
2022-09-23T23:40:24.796Z,11.03
2022-09-23T23:42:52.061Z,10.99
2022-09-23T23:45:19.281Z,10.95
2022-09-23T23:47:46.768Z,10.93
2022-09-23T23:50:14.340Z,10.92
2022-09-23T23:52:41.762Z,10.87
2022-09-23T23:55:09.448Z,10.84
2022-09-23T23:57:38.121Z,10.83
